createdAt,value
2017-07-09T00:00:30.044Z,49.85
2017-07-09T00:01:38.703Z,50.43
2017-07-09T00:02:48.303Z,50.24
2017-07-09T00:03:57.909Z,50.43
2017-07-09T00:05:06.882Z,50.43
2017-07-09T00:06:16.197Z,50.04
2017-07-09T00:07:25.829Z,50.14
2017-07-09T00:08:34.832Z,50.04
2017-07-09T00:09:44.113Z,50.34
2017-07-09T00:10:53.415Z,50.53
2017-07-09T00:12:02.687Z,50.43
2017-07-09T00:13:12.289Z,50.41
2017-07-09T00:14:21.259Z,50.6
2017-07-09T00:15:30.221Z,50.5
2017-07-09T00:16:39.498Z,50.5
2017-07-09T00:17:48.771Z,50.6
2017-07-09T00:18:57.725Z,50.6
2017-07-09T00:20:06.366Z,50.5
2017-07-09T00:21:15.659Z,50.79
2017-07-09T00:22:24.624Z,50.6
2017-07-09T00:23:33.292Z,51.09
2017-07-09T00:24:42.245Z,51.18
2017-07-09T00:25:52.146Z,50.6
2017-07-09T00:27:01.748Z,50.7
2017-07-09T00:28:11.342Z,50.5
2017-07-09T00:29:19.981Z,51.18
2017-07-09T00:30:29.278Z,51.09
2017-07-09T00:31:38.258Z,50.89
2017-07-09T00:32:47.229Z,50.6
2017-07-09T00:33:56.842Z,50.79
2017-07-09T00:35:06.132Z,50.79
2017-07-09T00:36:15.395Z,50.79
2017-07-09T00:37:24.654Z,50.89
2017-07-09T00:38:33.623Z,50.99
2017-07-09T00:39:42.587Z,50.99
2017-07-09T00:40:52.177Z,50.79
2017-07-09T00:42:01.145Z,50.7
2017-07-09T00:43:10.421Z,50.79
2017-07-09T00:44:19.709Z,50.89
2017-07-09T00:45:29.002Z,50.89
2017-07-09T00:46:38.578Z,50.89
2017-07-09T00:47:47.554Z,51.09
2017-07-09T00:48:56.514Z,51.18
2017-07-09T00:50:05.490Z,50.79
2017-07-09T00:51:14.775Z,50.21
2017-07-09T00:52:23.727Z,50.79
2017-07-09T00:53:33.032Z,50.7
2017-07-09T00:54:42.308Z,50.41
2017-07-09T00:55:51.276Z,50.79
2017-07-09T00:57:00.123Z,50.99
2017-07-09T00:58:08.774Z,51.09
2017-07-09T00:59:18.059Z,50.79
2017-07-09T01:00:26.703Z,50.7
2017-07-09T01:01:35.356Z,50.41
2017-07-09T01:02:44.619Z,50.5
2017-07-09T01:03:53.891Z,50.5
2017-07-09T01:05:02.526Z,50.41
2017-07-09T01:06:12.115Z,50.6
2017-07-09T01:07:21.068Z,50.41
2017-07-09T01:08:30.024Z,50.41
2017-07-09T01:09:38.671Z,50.5
2017-07-09T01:10:48.280Z,50.41
2017-07-09T01:11:57.243Z,50.5
2017-07-09T01:13:06.517Z,50.41
2017-07-09T01:14:15.163Z,50.41
2017-07-09T01:15:24.435Z,50.5
2017-07-09T01:16:33.706Z,50.7
2017-07-09T01:17:42.361Z,50.31
2017-07-09T01:18:51.637Z,50.5
2017-07-09T01:20:00.273Z,50.41
2017-07-09T01:21:09.568Z,50.6
2017-07-09T01:22:18.535Z,50.6
2017-07-09T01:23:27.197Z,50.6
2017-07-09T01:24:36.469Z,50.5
2017-07-09T01:25:45.438Z,50.99
2017-07-09T01:26:54.094Z,50.6
2017-07-09T01:28:02.730Z,50.41
2017-07-09T01:29:12.006Z,50.6
2017-07-09T01:30:21.284Z,50.5
2017-07-09T01:31:30.236Z,50.5
2017-07-09T01:32:39.209Z,50.31
2017-07-09T01:33:48.167Z,50.41
2017-07-09T01:34:58.071Z,50.6
2017-07-09T01:36:08.054Z,50.6
2017-07-09T01:37:17.020Z,50.6
2017-07-09T01:38:25.663Z,50.6
2017-07-09T01:39:34.319Z,50.5
2017-07-09T01:40:44.225Z,50.5
2017-07-09T01:41:53.810Z,50.41
2017-07-09T01:43:02.456Z,50.41
2017-07-09T01:44:11.744Z,50.5
2017-07-09T01:45:21.023Z,50.5
2017-07-09T01:46:30.300Z,50.5
2017-07-09T01:47:39.571Z,50.5
2017-07-09T01:48:48.209Z,50.79
2017-07-09T01:49:57.799Z,50.7
2017-07-09T01:51:07.387Z,50.41
2017-07-09T01:52:17.341Z,50.79
2017-07-09T01:53:25.990Z,50.99
2017-07-09T01:54:35.573Z,50.5
2017-07-09T01:55:45.166Z,50.89
2017-07-09T01:56:54.507Z,51.09
2017-07-09T01:58:03.771Z,51.18
2017-07-09T01:59:13.043Z,51.09
2017-07-09T02:00:22.328Z,51.09
2017-07-09T02:01:31.294Z,50.99
2017-07-09T02:02:40.244Z,50.89
2017-07-09T02:03:49.200Z,50.89
2017-07-09T02:04:57.838Z,50.99
2017-07-09T02:06:06.804Z,50.89
2017-07-09T02:07:15.770Z,51.09
2017-07-09T02:08:25.357Z,50.77
2017-07-09T02:09:34.629Z,50.96
2017-07-09T02:10:43.588Z,50.96
2017-07-09T02:11:52.855Z,51.25
2017-07-09T02:13:01.506Z,50.96
2017-07-09T02:14:11.153Z,51.25
2017-07-09T02:15:20.744Z,51.35
2017-07-09T02:16:30.019Z,51.35
2017-07-09T02:17:38.666Z,51.35
2017-07-09T02:18:47.949Z,51.25
2017-07-09T02:19:56.951Z,51.45
2017-07-09T02:21:06.229Z,51.35
2017-07-09T02:22:15.495Z,51.35
2017-07-09T02:23:24.790Z,51.35
2017-07-09T02:24:33.732Z,51.35
2017-07-09T02:25:42.673Z,51.35
2017-07-09T02:26:52.265Z,51.45
2017-07-09T02:28:00.914Z,51.35
2017-07-09T02:29:09.863Z,51.35
2017-07-09T02:30:19.137Z,51.35
2017-07-09T02:31:28.406Z,51.54
2017-07-09T02:32:37.360Z,51.35
2017-07-09T02:33:45.999Z,51.25
2017-07-09T02:34:54.963Z,51.16
2017-07-09T02:36:03.909Z,51.16
2017-07-09T02:37:12.862Z,51.16
2017-07-09T02:38:22.470Z,51.25
2017-07-09T02:39:31.423Z,51.45
2017-07-09T02:40:40.371Z,51.16
2017-07-09T02:41:49.649Z,51.25
2017-07-09T02:42:58.612Z,51.16
2017-07-09T02:44:07.251Z,51.25
2017-07-09T02:45:15.891Z,51.16
2017-07-09T02:46:24.859Z,51.25
2017-07-09T02:47:33.811Z,51.45
2017-07-09T02:48:42.766Z,51.45
2017-07-09T02:49:52.045Z,51.35
2017-07-09T02:51:01.326Z,51.35
2017-07-09T02:52:09.973Z,51.25
2017-07-09T02:53:18.937Z,51.35
2017-07-09T02:54:28.541Z,51.25
2017-07-09T02:55:37.507Z,51.54
2017-07-09T02:56:46.476Z,51.45
2017-07-09T02:57:56.064Z,51.54
2017-07-09T02:59:05.042Z,51.35
2017-07-09T03:00:14.629Z,51.45
2017-07-09T03:01:23.895Z,51.54
2017-07-09T03:02:33.164Z,51.54
2017-07-09T03:03:41.804Z,51.45
2017-07-09T03:04:50.441Z,51.35
2017-07-09T03:05:59.395Z,51.45
2017-07-09T03:07:08.668Z,51.25
2017-07-09T03:08:17.946Z,51.45
2017-07-09T03:09:27.677Z,51.45
2017-07-09T03:10:36.935Z,51.16
2017-07-09T03:11:46.526Z,51.16
2017-07-09T03:12:56.110Z,51.23
2017-07-09T03:14:05.081Z,51.13
2017-07-09T03:15:14.102Z,51.25
2017-07-09T03:16:23.061Z,51.16
2017-07-09T03:17:32.020Z,51.25
2017-07-09T03:18:40.982Z,51.25
2017-07-09T03:19:49.620Z,51.54
2017-07-09T03:20:58.270Z,50.96
2017-07-09T03:22:07.249Z,51.04
2017-07-09T03:23:16.513Z,51.25
2017-07-09T03:24:26.409Z,51.25
2017-07-09T03:25:35.679Z,51.35
2017-07-09T03:26:44.953Z,51.25
2017-07-09T03:27:53.596Z,50.96
2017-07-09T03:29:02.557Z,51.52
2017-07-09T03:30:11.200Z,51.35
2017-07-09T03:31:20.466Z,51.23
2017-07-09T03:32:29.436Z,51.42
2017-07-09T03:33:38.731Z,51.62
2017-07-09T03:34:47.680Z,51.42
2017-07-09T03:35:56.961Z,51.52
2017-07-09T03:37:06.234Z,51.62
2017-07-09T03:38:15.817Z,51.62
2017-07-09T03:39:25.088Z,51.62
2017-07-09T03:40:34.052Z,51.42
2017-07-09T03:41:43.010Z,51.72
2017-07-09T03:42:51.968Z,51.42
2017-07-09T03:44:01.862Z,51.62
2017-07-09T03:45:10.512Z,51.52
2017-07-09T03:46:19.793Z,51.72
2017-07-09T03:47:29.065Z,51.62
2017-07-09T03:48:37.712Z,51.52
2017-07-09T03:49:46.665Z,51.54
2017-07-09T03:50:55.305Z,51.54
2017-07-09T03:52:04.575Z,51.52
2017-07-09T03:53:13.536Z,51.54
2017-07-09T03:54:22.495Z,51.52
2017-07-09T03:55:31.450Z,51.54
2017-07-09T03:56:40.410Z,51.32
2017-07-09T03:57:49.679Z,51.54
2017-07-09T03:58:58.324Z,51.62
2017-07-09T04:00:07.284Z,51.42
2017-07-09T04:01:16.569Z,51.62
2017-07-09T04:02:25.546Z,51.81
2017-07-09T04:03:35.144Z,51.62
2017-07-09T04:04:44.102Z,52.1
2017-07-09T04:05:53.372Z,52
2017-07-09T04:07:02.656Z,51.72
2017-07-09T04:08:11.626Z,51.81
2017-07-09T04:09:21.212Z,51.9
2017-07-09T04:10:30.803Z,52.2
2017-07-09T04:11:40.068Z,52.1
2017-07-09T04:12:49.652Z,51.9
2017-07-09T04:13:58.939Z,51.62
2017-07-09T04:15:07.893Z,51.52
2017-07-09T04:16:17.172Z,51.62
2017-07-09T04:17:26.127Z,51.52
2017-07-09T04:18:36.024Z,51.42
2017-07-09T04:19:44.997Z,51.62
2017-07-09T04:20:54.303Z,51.42
2017-07-09T04:22:03.565Z,51.42
2017-07-09T04:23:12.826Z,51.62
2017-07-09T04:24:22.088Z,51.62
2017-07-09T04:25:31.674Z,51.62
2017-07-09T04:26:40.944Z,51.52
2017-07-09T04:27:49.902Z,51.42
2017-07-09T04:28:58.866Z,51.04
2017-07-09T04:30:08.141Z,51.35
2017-07-09T04:31:17.095Z,51.35
2017-07-09T04:32:26.051Z,50.96
2017-07-09T04:33:34.706Z,51.04
2017-07-09T04:34:44.287Z,51.42
2017-07-09T04:35:52.937Z,51.13
2017-07-09T04:37:01.897Z,51.52
2017-07-09T04:38:10.857Z,51.13
2017-07-09T04:39:20.140Z,51.32
2017-07-09T04:40:28.796Z,51.13
2017-07-09T04:41:38.080Z,51.25
2017-07-09T04:42:47.045Z,51.16
2017-07-09T04:43:56.311Z,51.25
2017-07-09T04:45:05.918Z,51.13
2017-07-09T04:46:15.169Z,51.23
2017-07-09T04:47:24.133Z,51.04
2017-07-09T04:48:33.092Z,51.23
2017-07-09T04:49:42.675Z,51.32
2017-07-09T04:50:51.326Z,51.23
2017-07-09T04:52:00.973Z,51.13
2017-07-09T04:53:09.618Z,51.23
2017-07-09T04:54:19.216Z,51.25
2017-07-09T04:55:28.172Z,51.42
2017-07-09T04:56:37.769Z,51.23
2017-07-09T04:57:47.047Z,50.77
2017-07-09T04:58:56.015Z,50.87
2017-07-09T05:00:04.648Z,50.96
2017-07-09T05:01:14.252Z,50.38
2017-07-09T05:02:23.526Z,50.48
2017-07-09T05:03:32.800Z,50.41
2017-07-09T05:04:41.767Z,50.31
2017-07-09T05:05:51.037Z,50.21
2017-07-09T05:07:00.314Z,50.41
2017-07-09T05:08:09.265Z,50.02
2017-07-09T05:09:18.226Z,49.92
2017-07-09T05:10:27.824Z,50.02
2017-07-09T05:11:36.784Z,49.85
2017-07-09T05:12:46.054Z,49.66
2017-07-09T05:13:56.041Z,49.37
2017-07-09T05:15:05.238Z,48.97
2017-07-09T05:16:14.819Z,49.07
2017-07-09T05:17:23.473Z,48.97
2017-07-09T05:18:32.428Z,48.97
2017-07-09T05:19:41.389Z,48.9
2017-07-09T05:20:50.027Z,48.61
2017-07-09T05:21:59.037Z,48.8
2017-07-09T05:23:08.002Z,48.8
2017-07-09T05:24:17.587Z,48.83
2017-07-09T05:25:26.862Z,48.71
2017-07-09T05:26:35.825Z,48.71
2017-07-09T05:27:44.778Z,48.64
2017-07-09T05:28:53.498Z,48.35
2017-07-09T05:30:02.451Z,48.44
2017-07-09T05:31:11.715Z,48.15
2017-07-09T05:32:20.698Z,48.15
2017-07-09T05:33:29.673Z,48.05
2017-07-09T05:34:38.942Z,47.96
2017-07-09T05:35:48.527Z,47.69
2017-07-09T05:36:57.799Z,47.69
2017-07-09T05:38:06.758Z,47.98
2017-07-09T05:39:15.713Z,47.3
2017-07-09T05:40:24.982Z,47.59
2017-07-09T05:41:33.937Z,47.59
2017-07-09T05:42:42.891Z,47.3
2017-07-09T05:43:51.852Z,47.4
2017-07-09T05:45:01.446Z,47.42
2017-07-09T05:46:11.344Z,46.94
2017-07-09T05:47:20.686Z,46.94
2017-07-09T05:48:30.277Z,46.84
2017-07-09T05:49:39.233Z,46.74
2017-07-09T05:50:48.503Z,46.55
2017-07-09T05:51:57.476Z,47.03
2017-07-09T05:53:06.747Z,46.67
2017-07-09T05:54:15.714Z,46.37
2017-07-09T05:55:24.421Z,46.77
2017-07-09T05:56:33.434Z,46.47
2017-07-09T05:57:42.404Z,46.67
2017-07-09T05:58:51.059Z,46.86
2017-07-09T05:59:59.702Z,46.77
2017-07-09T06:01:09.304Z,46.96
2017-07-09T06:02:18.899Z,46.28
2017-07-09T06:03:27.885Z,46.28
2017-07-09T06:04:37.165Z,45.98
2017-07-09T06:05:46.129Z,46.18
2017-07-09T06:06:55.725Z,46.47
2017-07-09T06:08:04.686Z,45.91
2017-07-09T06:09:13.660Z,46.01
2017-07-09T06:10:22.308Z,45.91
2017-07-09T06:11:31.263Z,45.81
2017-07-09T06:12:40.541Z,46.2
2017-07-09T06:13:49.502Z,46.3
2017-07-09T06:14:58.463Z,45.74
2017-07-09T06:16:07.105Z,45.45
2017-07-09T06:17:16.067Z,45.62
2017-07-09T06:18:25.337Z,46.03
2017-07-09T06:19:33.994Z,45.64
2017-07-09T06:20:43.579Z,45.35
2017-07-09T06:21:52.528Z,45.35
2017-07-09T06:23:01.486Z,45.15
2017-07-09T06:24:10.440Z,44.96
2017-07-09T06:25:20.014Z,45.08
2017-07-09T06:26:28.970Z,44.59
2017-07-09T06:27:38.563Z,44.59
2017-07-09T06:28:47.838Z,44.52
2017-07-09T06:29:57.118Z,44.71
2017-07-09T06:31:06.077Z,44.32
2017-07-09T06:32:15.360Z,44.52
2017-07-09T06:33:24.651Z,44.32
2017-07-09T06:34:34.252Z,44.05
2017-07-09T06:35:43.524Z,44.15
2017-07-09T06:36:52.174Z,43.95
2017-07-09T06:38:01.471Z,43.95
2017-07-09T06:39:11.080Z,43.85
2017-07-09T06:40:19.729Z,43.76
2017-07-09T06:41:28.687Z,44.05
2017-07-09T06:42:37.968Z,44.24
2017-07-09T06:43:47.559Z,44.15
2017-07-09T06:44:56.195Z,44.52
2017-07-09T06:46:05.168Z,45.1
2017-07-09T06:47:14.126Z,45.29
2017-07-09T06:48:23.138Z,45.57
2017-07-09T06:49:32.090Z,45.76
2017-07-09T06:50:41.364Z,46.25
2017-07-09T06:51:50.322Z,46.03
2017-07-09T06:52:59.902Z,46.42
2017-07-09T06:54:09.499Z,46.81
2017-07-09T06:55:18.460Z,46.98
2017-07-09T06:56:27.756Z,47.86
2017-07-09T06:57:36.404Z,47.56
2017-07-09T06:58:45.994Z,47.83
2017-07-09T06:59:54.648Z,47.83
2017-07-09T07:01:03.933Z,47.83
2017-07-09T07:02:12.889Z,48.22
2017-07-09T07:03:22.790Z,48.03
2017-07-09T07:04:31.446Z,48.13
2017-07-09T07:05:40.414Z,48.13
2017-07-09T07:06:49.066Z,47.83
2017-07-09T07:07:58.653Z,48.22
2017-07-09T07:09:07.306Z,48.68
2017-07-09T07:10:16.264Z,48.78
2017-07-09T07:11:24.909Z,47.91
2017-07-09T07:12:33.559Z,47.74
2017-07-09T07:13:42.516Z,47.74
2017-07-09T07:14:51.784Z,47.44
2017-07-09T07:16:00.743Z,46.77
2017-07-09T07:17:09.702Z,46.78
2017-07-09T07:18:18.976Z,46.78
2017-07-09T07:19:28.263Z,46.11
2017-07-09T07:20:37.218Z,45.84
2017-07-09T07:21:45.877Z,45.84
2017-07-09T07:22:55.482Z,46.23
2017-07-09T07:24:04.447Z,46.13
2017-07-09T07:25:13.098Z,46.03
2017-07-09T07:26:22.053Z,45.74
2017-07-09T07:27:31.007Z,45.74
2017-07-09T07:28:40.278Z,46.51
2017-07-09T07:29:48.914Z,46.03
2017-07-09T07:31:29.956Z,46.32
2017-07-09T07:32:38.919Z,46.81
2017-07-09T07:33:47.594Z,46.59
2017-07-09T07:34:57.196Z,46.98
2017-07-09T07:36:06.468Z,46.88
2017-07-09T07:37:16.075Z,47.56
2017-07-09T07:38:24.719Z,47.64
2017-07-09T07:39:33.678Z,47.83
2017-07-09T07:40:42.647Z,48.13
2017-07-09T07:41:51.618Z,47.93
2017-07-09T07:43:00.260Z,47.54
2017-07-09T07:44:09.206Z,47.44
2017-07-09T07:45:18.205Z,47.74
2017-07-09T07:46:27.508Z,47.54
2017-07-09T07:47:36.469Z,47.34
2017-07-09T07:48:45.438Z,47.83
2017-07-09T07:49:55.021Z,47.93
2017-07-09T07:51:03.704Z,48.13
2017-07-09T07:52:12.673Z,48.71
2017-07-09T07:53:22.322Z,48.49
2017-07-09T07:54:31.282Z,48.58
2017-07-09T07:55:40.562Z,48.88
2017-07-09T07:56:49.533Z,49.07
2017-07-09T07:57:58.806Z,48.1
2017-07-09T07:59:07.478Z,47.64
2017-07-09T08:00:16.432Z,46.88
2017-07-09T08:01:25.391Z,46.5
2017-07-09T08:02:35.292Z,46.59
2017-07-09T08:03:43.930Z,46.5
2017-07-09T08:04:52.565Z,45.45
2017-07-09T08:06:02.478Z,44.79
2017-07-09T08:07:11.161Z,44.4
2017-07-09T08:08:20.140Z,44.71
2017-07-09T08:09:29.097Z,44.52
2017-07-09T08:10:37.746Z,44.62
2017-07-09T08:11:46.724Z,44.32
2017-07-09T08:12:55.688Z,43.93
2017-07-09T08:14:04.986Z,43.66
2017-07-09T08:15:14.254Z,42.71
2017-07-09T08:16:23.523Z,42.14
2017-07-09T08:17:32.186Z,41.48
2017-07-09T08:18:41.472Z,41.11
2017-07-09T08:19:50.743Z,40.43
2017-07-09T08:20:59.722Z,40.16
2017-07-09T08:22:09.000Z,41.03
2017-07-09T08:23:18.285Z,41.13
2017-07-09T08:24:27.880Z,41.99
2017-07-09T08:25:36.846Z,42.46
2017-07-09T08:26:45.796Z,43.02
2017-07-09T08:27:54.750Z,43.59
2017-07-09T08:29:03.389Z,43.39
2017-07-09T08:30:12.364Z,43.61
2017-07-09T08:31:22.379Z,44.07
2017-07-09T08:32:31.597Z,44.24
2017-07-09T08:33:40.862Z,44.64
2017-07-09T08:34:50.150Z,44.15
2017-07-09T08:35:58.797Z,43.18
2017-07-09T08:37:07.599Z,42.83
2017-07-09T08:38:16.556Z,42.54
2017-07-09T08:39:25.852Z,42.26
2017-07-09T08:40:34.501Z,41.6
2017-07-09T08:41:43.157Z,41.11
2017-07-09T08:42:52.753Z,41.23
2017-07-09T08:44:02.037Z,40.94
2017-07-09T08:45:11.625Z,41.23
2017-07-09T08:46:21.213Z,41.13
2017-07-09T08:47:30.495Z,41.52
2017-07-09T08:48:39.520Z,42.29
2017-07-09T08:49:48.167Z,42.58
2017-07-09T08:50:57.123Z,43.04
2017-07-09T08:52:06.411Z,43.8
2017-07-09T08:53:15.048Z,44.27
2017-07-09T08:54:24.319Z,44.66
2017-07-09T08:55:33.597Z,44.73
2017-07-09T08:56:42.888Z,45.39
2017-07-09T08:57:52.155Z,45.59
2017-07-09T08:59:01.117Z,45.98
2017-07-09T09:00:10.712Z,46.34
2017-07-09T09:01:20.058Z,46.93
2017-07-09T09:02:29.340Z,46.81
2017-07-09T09:03:38.930Z,47.39
2017-07-09T09:04:48.588Z,47.66
2017-07-09T09:05:58.196Z,47.76
2017-07-09T09:07:07.161Z,47.37
2017-07-09T09:08:16.127Z,47.76
2017-07-09T09:09:25.114Z,47.86
2017-07-09T09:10:34.079Z,47.76
2017-07-09T09:11:43.985Z,47.64
2017-07-09T09:12:52.960Z,47.64
2017-07-09T09:14:01.923Z,47.74
2017-07-09T09:15:10.568Z,47.74
2017-07-09T09:16:19.853Z,47.74
2017-07-09T09:17:29.769Z,47.86
2017-07-09T09:18:39.047Z,47.93
2017-07-09T09:19:48.013Z,48.22
2017-07-09T09:20:56.983Z,48.61
2017-07-09T09:22:06.577Z,48.51
2017-07-09T09:23:15.540Z,48.88
2017-07-09T09:24:24.523Z,48.88
2017-07-09T09:25:33.797Z,48.58
2017-07-09T09:26:42.439Z,48.97
2017-07-09T09:27:51.709Z,49.07
2017-07-09T09:29:00.820Z,49.17
2017-07-09T09:30:10.098Z,49.17
2017-07-09T09:31:19.374Z,49.17
2017-07-09T09:32:28.011Z,48.88
2017-07-09T09:33:37.296Z,48.68
2017-07-09T09:34:46.249Z,48.88
2017-07-09T09:35:54.897Z,48.85
2017-07-09T09:37:03.872Z,48.95
2017-07-09T09:38:12.825Z,48.78
2017-07-09T09:39:22.104Z,48.85
2017-07-09T09:40:31.379Z,48.75
2017-07-09T09:41:40.953Z,48.75
2017-07-09T09:42:49.920Z,48.95
2017-07-09T09:43:58.889Z,48.95
2017-07-09T09:45:07.877Z,48.95
2017-07-09T09:46:16.838Z,49.27
2017-07-09T09:47:26.421Z,48.57
2017-07-09T09:48:35.378Z,48.88
2017-07-09T09:49:44.961Z,48.75
2017-07-09T09:50:54.565Z,48.68
2017-07-09T09:52:03.535Z,48.49
2017-07-09T09:53:12.504Z,48.49
2017-07-09T09:54:21.786Z,48.39
2017-07-09T09:55:30.434Z,48.49
2017-07-09T09:56:39.721Z,48.3
2017-07-09T09:57:48.685Z,48.49
2017-07-09T09:58:57.952Z,48.49
2017-07-09T10:00:06.617Z,48.49
2017-07-09T10:01:15.585Z,48.68
2017-07-09T10:02:24.580Z,48.39
2017-07-09T10:03:33.545Z,48.39
2017-07-09T10:04:42.517Z,48.49
2017-07-09T10:05:51.789Z,48.39
2017-07-09T10:07:00.758Z,48.47
2017-07-09T10:08:09.730Z,48.49
2017-07-09T10:09:19.047Z,48.47
2017-07-09T10:10:28.328Z,48.68
2017-07-09T10:11:37.335Z,48.49
2017-07-09T10:12:46.937Z,48.39
2017-07-09T10:13:56.225Z,48.68
2017-07-09T10:15:05.516Z,48.66
2017-07-09T10:16:14.486Z,48.37
2017-07-09T10:17:23.151Z,48.57
2017-07-09T10:18:32.435Z,48.57
2017-07-09T10:19:41.756Z,48.57
2017-07-09T10:20:50.413Z,48.75
2017-07-09T10:22:00.001Z,48.49
2017-07-09T10:23:09.030Z,48.49
2017-07-09T10:24:17.997Z,48.37
2017-07-09T10:25:27.284Z,48.68
2017-07-09T10:26:35.931Z,47.88
2017-07-09T10:27:45.222Z,48.18
2017-07-09T10:28:55.118Z,48.08
2017-07-09T10:30:03.756Z,48
2017-07-09T10:31:13.035Z,47.91
2017-07-09T10:32:21.992Z,47.81
2017-07-09T10:33:31.592Z,47.71
2017-07-09T10:34:40.868Z,47.81
2017-07-09T10:35:49.504Z,47.81
2017-07-09T10:36:58.143Z,47.61
2017-07-09T10:38:07.092Z,47.71
2017-07-09T10:39:16.048Z,47.61
2017-07-09T10:40:25.325Z,47.91
2017-07-09T10:41:34.290Z,48
2017-07-09T10:42:43.573Z,47.98
2017-07-09T10:43:52.845Z,47.88
2017-07-09T10:45:02.149Z,47.98
2017-07-09T10:46:11.106Z,48
2017-07-09T10:47:20.064Z,48.18
2017-07-09T10:48:29.019Z,47.98
2017-07-09T10:49:37.971Z,47.98
2017-07-09T10:50:47.243Z,47.71
2017-07-09T10:51:56.520Z,47.81
2017-07-09T10:53:05.484Z,47.32
2017-07-09T10:54:14.439Z,47.81
2017-07-09T10:55:23.092Z,47.52
2017-07-09T10:56:32.377Z,47.52
2017-07-09T10:57:41.668Z,47.61
2017-07-09T10:58:50.952Z,47.71
2017-07-09T11:00:00.227Z,47.71
2017-07-09T11:01:09.493Z,47.71
2017-07-09T11:02:18.775Z,47.61
2017-07-09T11:03:28.428Z,47.42
2017-07-09T11:04:37.075Z,47.61
2017-07-09T11:05:46.352Z,47.42
2017-07-09T11:06:55.311Z,47.42
2017-07-09T11:08:03.958Z,47.71
2017-07-09T11:09:12.921Z,47.52
2017-07-09T11:10:22.518Z,47.71
2017-07-09T11:11:31.484Z,47.52
2017-07-09T11:12:40.829Z,47.81
2017-07-09T11:13:49.784Z,47.81
2017-07-09T11:14:58.435Z,47.71
2017-07-09T11:16:07.437Z,47.61
2017-07-09T11:17:16.415Z,47.88
2017-07-09T11:18:25.110Z,47.42
2017-07-09T11:19:34.077Z,47.71
2017-07-09T11:20:43.032Z,47.71
2017-07-09T11:21:51.678Z,47.59
2017-07-09T11:23:00.335Z,47.71
2017-07-09T11:24:09.613Z,47.32
2017-07-09T11:25:18.256Z,47.61
2017-07-09T11:26:28.205Z,47.42
2017-07-09T11:27:37.162Z,46.74
2017-07-09T11:28:46.447Z,47.03
2017-07-09T11:29:55.734Z,46.94
2017-07-09T11:31:04.704Z,46.74
2017-07-09T11:32:13.665Z,46.74
2017-07-09T11:33:22.946Z,46.94
2017-07-09T11:34:32.215Z,47.13
2017-07-09T11:35:41.176Z,46.74
2017-07-09T11:36:50.143Z,46.74
2017-07-09T11:37:58.794Z,46.74
2017-07-09T11:39:07.768Z,46.64
2017-07-09T11:40:16.734Z,46.74
2017-07-09T11:41:26.009Z,46.84
2017-07-09T11:42:34.988Z,46.64
2017-07-09T11:43:43.953Z,47.03
2017-07-09T11:44:52.924Z,46.94
2017-07-09T11:46:02.835Z,46.94
2017-07-09T11:47:11.855Z,46.77
2017-07-09T11:48:21.456Z,46.74
2017-07-09T11:49:30.719Z,46.64
2017-07-09T11:50:39.984Z,46.74
2017-07-09T11:51:48.659Z,46.94
2017-07-09T11:52:57.955Z,46.74
2017-07-09T11:54:06.917Z,46.84
2017-07-09T11:55:15.556Z,46.64
2017-07-09T11:56:25.158Z,46.64
2017-07-09T11:57:33.808Z,46.64
2017-07-09T11:58:42.767Z,46.74
2017-07-09T11:59:51.756Z,46.64
2017-07-09T12:01:00.406Z,46.94
2017-07-09T12:02:09.996Z,46.64
2017-07-09T12:03:18.977Z,46.94
2017-07-09T12:04:27.941Z,46.94
2017-07-09T12:05:36.903Z,46.64
2017-07-09T12:06:45.866Z,46.84
2017-07-09T12:07:55.142Z,46.74
2017-07-09T12:09:04.424Z,46.94
2017-07-09T12:10:13.714Z,46.84
2017-07-09T12:11:22.988Z,46.55
2017-07-09T12:12:32.261Z,46.25
2017-07-09T12:13:41.531Z,46.74
2017-07-09T12:14:51.126Z,46.55
2017-07-09T12:16:00.082Z,46.64
2017-07-09T12:17:09.047Z,46.55
2017-07-09T12:18:18.649Z,46.55
2017-07-09T12:19:27.612Z,46.25
2017-07-09T12:20:36.891Z,46.35
2017-07-09T12:21:46.167Z,46.15
2017-07-09T12:22:55.129Z,46.45
2017-07-09T12:24:04.089Z,46.25
2017-07-09T12:25:13.075Z,46.25
2017-07-09T12:26:22.674Z,46.25
2017-07-09T12:27:32.276Z,46.35
2017-07-09T12:28:41.234Z,46.35
2017-07-09T12:29:50.195Z,46.35
2017-07-09T12:31:00.120Z,46.06
2017-07-09T12:32:10.040Z,45.97
2017-07-09T12:33:18.706Z,46.35
2017-07-09T12:34:27.663Z,46.45
2017-07-09T12:35:36.939Z,46.45
2017-07-09T12:36:45.908Z,46.06
2017-07-09T12:37:54.880Z,45.69
2017-07-09T12:39:04.826Z,46.06
2017-07-09T12:40:13.788Z,45.87
2017-07-09T12:41:23.090Z,45.89
2017-07-09T12:42:32.050Z,45.87
2017-07-09T12:43:41.020Z,46.08
2017-07-09T12:44:49.670Z,46.08
2017-07-09T12:45:58.630Z,46.37
2017-07-09T12:47:07.593Z,46.15
2017-07-09T12:48:16.561Z,46.28
2017-07-09T12:49:26.168Z,46.28
2017-07-09T12:50:34.860Z,46.37
2017-07-09T12:51:43.512Z,46.25
2017-07-09T12:52:53.445Z,46.08
2017-07-09T12:54:02.480Z,46.06
2017-07-09T12:55:11.457Z,46.15
2017-07-09T12:56:20.728Z,46.18
2017-07-09T12:57:30.341Z,45.87
2017-07-09T12:58:39.931Z,45.87
2017-07-09T12:59:49.137Z,45.38
2017-07-09T13:00:58.754Z,45.4
2017-07-09T13:02:07.720Z,45.69
2017-07-09T13:03:16.991Z,45.6
2017-07-09T13:04:25.637Z,45.98
2017-07-09T13:05:34.291Z,45.6
2017-07-09T13:06:42.947Z,45.89
2017-07-09T13:07:52.557Z,45.4
2017-07-09T13:09:01.845Z,45.4
2017-07-09T13:10:11.156Z,45.4
2017-07-09T13:11:20.135Z,45.6
2017-07-09T13:12:28.797Z,45.4
2017-07-09T13:13:38.391Z,45.6
2017-07-09T13:14:47.376Z,45.4
2017-07-09T13:15:57.012Z,45.4
2017-07-09T13:17:06.321Z,45.21
2017-07-09T13:18:15.301Z,45.21
2017-07-09T13:19:24.286Z,45.21
2017-07-09T13:20:33.258Z,45.11
2017-07-09T13:21:41.918Z,45.4
2017-07-09T13:22:50.613Z,44.82
2017-07-09T13:23:59.267Z,44.92
2017-07-09T13:25:08.220Z,44.92
2017-07-09T13:26:17.824Z,45.01
2017-07-09T13:27:27.137Z,45.01
2017-07-09T13:28:36.738Z,45.31
2017-07-09T13:29:45.717Z,45.11
2017-07-09T13:30:54.367Z,45.31
2017-07-09T13:32:03.334Z,45.21
2017-07-09T13:33:12.305Z,44.82
2017-07-09T13:34:21.269Z,44.43
2017-07-09T13:35:30.570Z,44.53
2017-07-09T13:36:39.237Z,44.43
2017-07-09T13:37:48.527Z,44.62
2017-07-09T13:38:57.185Z,44.43
2017-07-09T13:40:06.463Z,44.43
2017-07-09T13:41:15.125Z,44.33
2017-07-09T13:42:24.092Z,44.45
2017-07-09T13:43:33.123Z,44.43
2017-07-09T13:44:42.430Z,44.33
2017-07-09T13:45:51.712Z,44.45
2017-07-09T13:47:00.699Z,44.45
2017-07-09T13:48:09.996Z,44.35
2017-07-09T13:49:19.278Z,44.35
2017-07-09T13:50:27.938Z,44.35
2017-07-09T13:51:37.244Z,44.55
2017-07-09T13:52:46.204Z,44.45
2017-07-09T13:53:55.185Z,44.55
2017-07-09T13:55:04.486Z,44.26
2017-07-09T13:56:13.752Z,44.06
2017-07-09T13:57:23.036Z,44.16
2017-07-09T13:58:32.013Z,44.26
2017-07-09T13:59:40.667Z,44.16
2017-07-09T14:00:49.313Z,44.26
2017-07-09T14:01:58.268Z,44.45
2017-07-09T14:03:07.878Z,44.45
2017-07-09T14:04:17.167Z,44.35
2017-07-09T14:05:25.807Z,44.45
2017-07-09T14:06:35.088Z,44.35
2017-07-09T14:07:44.049Z,44.35
2017-07-09T14:08:52.697Z,44.45
2017-07-09T14:10:01.669Z,44.35
2017-07-09T14:11:10.640Z,44.26
2017-07-09T14:12:19.307Z,43.77
2017-07-09T14:13:28.601Z,43.96
2017-07-09T14:14:37.562Z,43.87
2017-07-09T14:15:46.833Z,43.96
2017-07-09T14:16:55.785Z,43.96
2017-07-09T14:18:04.750Z,43.87
2017-07-09T14:19:14.033Z,43.87
2017-07-09T14:20:23.643Z,43.96
2017-07-09T14:21:32.930Z,44.06
2017-07-09T14:22:41.888Z,44.06
2017-07-09T14:23:50.550Z,43.96
2017-07-09T14:24:59.852Z,43.96
2017-07-09T14:26:09.457Z,44.06
2017-07-09T14:27:19.381Z,44.16
2017-07-09T14:28:28.974Z,44.06
2017-07-09T14:29:37.936Z,43.87
2017-07-09T14:30:47.216Z,44.06
2017-07-09T14:31:55.932Z,44.26
2017-07-09T14:33:05.230Z,43.87
2017-07-09T14:34:14.196Z,43.48
2017-07-09T14:35:23.171Z,43.7
2017-07-09T14:36:32.197Z,43.5
2017-07-09T14:37:41.174Z,43.7
2017-07-09T14:38:50.146Z,43.58
2017-07-09T14:39:58.812Z,43.21
2017-07-09T14:41:07.494Z,43.29
2017-07-09T14:42:16.146Z,43.58
2017-07-09T14:43:25.122Z,43.38
2017-07-09T14:44:34.411Z,43.4
2017-07-09T14:45:43.378Z,43.38
2017-07-09T14:46:52.355Z,43.4
2017-07-09T14:48:01.325Z,43.4
2017-07-09T14:49:09.987Z,43.4
2017-07-09T14:50:18.651Z,43.29
2017-07-09T14:51:28.099Z,43.11
2017-07-09T14:52:37.060Z,43.5
2017-07-09T14:53:46.050Z,43.3